createdAt,value
2017-09-20T00:01:43.237Z,95.20
2017-09-20T00:04:11.573Z,95.50
2017-09-20T00:06:39.892Z,95.60
2017-09-20T00:09:08.236Z,95.50
2017-09-20T00:11:36.562Z,95.60
2017-09-20T00:14:04.909Z,95.50
2017-09-20T00:16:33.235Z,95.50
2017-09-20T00:19:02.334Z,95.50
2017-09-20T00:21:31.436Z,95.70
2017-09-20T00:24:00.538Z,95.70
2017-09-20T00:26:29.678Z,95.70
2017-09-20T00:28:58.033Z,95.70
2017-09-20T00:31:26.373Z,96.10
2017-09-20T00:33:54.701Z,96.00
2017-09-20T00:36:23.068Z,95.90
2017-09-20T00:38:51.402Z,95.90
2017-09-20T00:41:19.753Z,96.00
2017-09-20T00:43:48.107Z,96.10
2017-09-20T00:46:16.450Z,96.00
2017-09-20T00:48:44.793Z,96.20
2017-09-20T00:51:13.137Z,96.10
2017-09-20T00:53:41.454Z,95.90
2017-09-20T00:56:09.798Z,96.10
2017-09-20T00:58:38.139Z,96.10
2017-09-20T01:01:07.258Z,96.40
2017-09-20T01:03:35.592Z,96.40
2017-09-20T01:06:03.941Z,96.30
2017-09-20T01:08:32.267Z,96.40
2017-09-20T01:11:00.632Z,96.30
2017-09-20T01:13:28.955Z,96.60
2017-09-20T01:15:57.312Z,96.20
2017-09-20T01:18:25.638Z,96.40
2017-09-20T01:21:05.940Z,96.50
2017-09-20T01:23:36.854Z,96.10
2017-09-20T01:26:05.215Z,96.10
2017-09-20T01:28:33.562Z,96.20
2017-09-20T01:31:01.937Z,95.90
2017-09-20T01:33:31.030Z,96.00
2017-09-20T01:36:00.146Z,96.20
2017-09-20T01:38:28.500Z,96.20
2017-09-20T01:40:56.862Z,96.30
2017-09-20T01:43:25.189Z,96.00
2017-09-20T01:45:53.560Z,96.10
2017-09-20T01:48:21.880Z,95.90
2017-09-20T01:50:50.240Z,96.00
2017-09-20T01:53:18.582Z,95.90
2017-09-20T01:55:47.703Z,95.60
2017-09-20T01:58:16.026Z,95.60
2017-09-20T02:00:44.378Z,95.60
2017-09-20T02:03:12.719Z,95.50
2017-09-20T02:05:41.825Z,95.50
2017-09-20T02:08:10.165Z,95.50
2017-09-20T02:10:38.646Z,95.40
2017-09-20T02:13:06.981Z,95.40
2017-09-20T02:15:35.327Z,95.30
2017-09-20T02:18:04.421Z,95.70
2017-09-20T02:20:32.890Z,95.70
2017-09-20T02:23:02.253Z,95.20
2017-09-20T02:25:30.605Z,95.20
2017-09-20T02:27:59.690Z,94.80
2017-09-20T02:30:28.805Z,95.10
2017-09-20T02:32:57.140Z,95.10
2017-09-20T02:35:25.495Z,95.20
2017-09-20T02:37:53.851Z,95.00
2017-09-20T02:40:22.995Z,95.00
2017-09-20T02:42:51.339Z,95.00
2017-09-20T02:45:19.732Z,95.60
2017-09-20T02:47:48.065Z,95.10
2017-09-20T02:50:16.417Z,95.50
2017-09-20T02:52:44.743Z,95.60
2017-09-20T02:55:13.088Z,96.10
2017-09-20T02:57:41.441Z,96.20
2017-09-20T03:00:09.819Z,96.50
2017-09-20T03:02:38.160Z,96.30
2017-09-20T03:05:06.509Z,96.30
2017-09-20T03:07:39.676Z,96.50
2017-09-20T03:10:15.075Z,96.30
2017-09-20T03:12:43.404Z,96.50
2017-09-20T03:15:11.752Z,96.80
2017-09-20T03:17:40.078Z,96.80
2017-09-20T03:20:09.183Z,96.40
2017-09-20T03:22:37.506Z,96.40
2017-09-20T03:25:05.841Z,96.30
2017-09-20T03:27:34.937Z,96.90
2017-09-20T03:30:03.297Z,96.90
2017-09-20T03:32:31.621Z,96.80
2017-09-20T03:35:02.494Z,96.80
2017-09-20T03:37:30.818Z,96.30
2017-09-20T03:39:59.166Z,96.80
2017-09-20T03:42:27.486Z,96.70
2017-09-20T03:44:55.834Z,97.10
2017-09-20T03:47:24.153Z,97.20
2017-09-20T03:49:52.478Z,97.00
2017-09-20T03:52:20.829Z,96.60
2017-09-20T03:54:49.158Z,96.30
2017-09-20T03:57:18.270Z,96.40
2017-09-20T03:59:46.596Z,96.40
2017-09-20T04:02:14.955Z,96.10
2017-09-20T04:04:43.281Z,95.80
2017-09-20T04:07:12.416Z,95.70
2017-09-20T04:09:40.750Z,95.70
2017-09-20T04:12:09.097Z,95.30
2017-09-20T04:14:37.413Z,95.20
2017-09-20T04:17:05.753Z,95.10
2017-09-20T04:19:34.071Z,95.20
2017-09-20T04:22:02.429Z,94.90
2017-09-20T04:24:30.754Z,94.60
2017-09-20T04:26:59.105Z,94.20
2017-09-20T04:29:27.468Z,94.20
2017-09-20T04:31:55.807Z,94.00
2017-09-20T04:34:24.143Z,93.80
2017-09-20T04:36:53.268Z,93.90
2017-09-20T04:39:21.600Z,93.60
2017-09-20T04:41:49.942Z,94.10
2017-09-20T04:44:18.274Z,93.90
2017-09-20T04:46:46.661Z,93.80
2017-09-20T04:49:15.759Z,94.90
2017-09-20T04:51:44.105Z,94.80
2017-09-20T04:54:12.422Z,95.00
2017-09-20T04:56:41.531Z,95.50
2017-09-20T04:59:10.627Z,95.80
2017-09-20T05:01:39.727Z,95.90
2017-09-20T05:04:08.042Z,95.90
2017-09-20T05:06:36.383Z,95.70
2017-09-20T05:09:04.705Z,95.70
2017-09-20T05:11:33.052Z,96.30
2017-09-20T05:14:01.365Z,96.00
2017-09-20T05:16:29.699Z,96.20
2017-09-20T05:18:58.027Z,96.30
2017-09-20T05:21:26.374Z,96.40
2017-09-20T05:23:54.710Z,96.50
2017-09-20T05:26:23.822Z,96.70
2017-09-20T05:28:52.148Z,96.70
2017-09-20T05:31:20.490Z,97.40
2017-09-20T05:33:48.818Z,97.00
2017-09-20T05:36:17.168Z,96.80
2017-09-20T05:38:45.481Z,96.40
2017-09-20T05:41:13.827Z,95.70
2017-09-20T05:43:42.157Z,96.40
2017-09-20T05:46:10.501Z,96.90
2017-09-20T05:48:38.822Z,97.00
2017-09-20T05:51:07.937Z,96.40
2017-09-20T05:53:36.268Z,96.40
2017-09-20T05:56:04.629Z,96.30
2017-09-20T06:01:33.921Z,96.70
2017-09-20T06:04:02.279Z,96.70
2017-09-20T06:06:31.406Z,96.60
2017-09-20T06:08:59.815Z,96.60
2017-09-20T06:11:28.158Z,96.90
2017-09-20T06:13:56.503Z,97.20
2017-09-20T06:16:24.852Z,97.00
2017-09-20T06:18:53.186Z,97.00
2017-09-20T06:21:22.291Z,97.00
2017-09-20T06:23:50.626Z,97.00
2017-09-20T06:26:18.969Z,97.10
2017-09-20T06:28:47.309Z,97.00
2017-09-20T06:31:16.425Z,97.10
2017-09-20T06:33:44.752Z,97.10
2017-09-20T06:36:13.111Z,97.30
2017-09-20T06:38:41.457Z,97.20
2017-09-20T06:41:09.801Z,97.30
2017-09-20T06:43:38.911Z,97.60
2017-09-20T06:46:08.014Z,96.80
2017-09-20T06:48:37.110Z,97.30
2017-09-20T06:51:06.225Z,97.10
2017-09-20T06:53:34.552Z,97.00
2017-09-20T06:56:02.898Z,96.60
2017-09-20T06:58:31.232Z,96.90
2017-09-20T07:00:59.583Z,96.90
2017-09-20T07:03:27.919Z,96.90
2017-09-20T07:05:56.270Z,97.10
2017-09-20T07:08:24.593Z,96.80
2017-09-20T07:10:52.951Z,97.00
2017-09-20T07:13:22.046Z,96.50
2017-09-20T07:15:50.410Z,96.50
2017-09-20T07:18:19.509Z,96.20
2017-09-20T07:20:47.837Z,96.10
2017-09-20T07:23:16.200Z,96.00
2017-09-20T07:25:44.530Z,96.10
2017-09-20T07:28:12.890Z,96.10
2017-09-20T07:30:41.223Z,95.90
2017-09-20T07:33:09.575Z,96.10
2017-09-20T07:35:37.908Z,95.60
2017-09-20T07:38:06.263Z,95.70
2017-09-20T07:40:34.592Z,95.30
2017-09-20T07:43:02.929Z,95.20
2017-09-20T07:45:31.251Z,95.30
2017-09-20T07:47:59.605Z,95.50
2017-09-20T07:50:27.935Z,95.20
2017-09-20T07:52:57.053Z,95.10
2017-09-20T07:55:25.382Z,95.00
2017-09-20T07:57:53.721Z,95.30
2017-09-20T08:00:22.043Z,94.90
2017-09-20T08:02:50.406Z,95.10
2017-09-20T08:05:18.728Z,95.50
2017-09-20T08:07:47.117Z,95.10
2017-09-20T08:10:15.450Z,95.40
2017-09-20T08:12:43.789Z,95.20
2017-09-20T08:15:12.111Z,95.70
2017-09-20T08:17:40.463Z,95.50
2017-09-20T08:20:08.803Z,95.20
2017-09-20T08:22:37.167Z,95.40
2017-09-20T08:25:05.500Z,95.00
2017-09-20T08:27:33.848Z,94.90
2017-09-20T08:30:02.938Z,94.50
2017-09-20T08:32:32.055Z,94.30
2017-09-20T08:35:00.383Z,94.30
2017-09-20T08:37:28.731Z,93.80
2017-09-20T08:39:57.114Z,94.20
2017-09-20T08:42:25.475Z,93.70
2017-09-20T08:44:53.790Z,93.90
2017-09-20T08:47:22.134Z,93.90
2017-09-20T08:49:50.447Z,93.60
2017-09-20T08:52:18.798Z,93.60
2017-09-20T08:54:47.125Z,93.40
2017-09-20T08:57:15.469Z,93.50
2017-09-20T08:59:43.799Z,93.00
2017-09-20T09:02:12.919Z,92.80
2017-09-20T09:04:41.250Z,92.80
2017-09-20T09:07:09.612Z,92.90
2017-09-20T09:09:37.944Z,92.50
2017-09-20T09:12:06.338Z,92.40
2017-09-20T09:14:34.687Z,92.90
2017-09-20T09:17:03.034Z,92.50
2017-09-20T09:19:31.367Z,92.20
2017-09-20T09:21:59.742Z,91.90
2017-09-20T09:24:28.616Z,91.60
2017-09-20T09:26:56.991Z,91.90
2017-09-20T09:29:25.360Z,91.50
2017-09-20T09:31:53.718Z,92.00
2017-09-20T09:34:22.059Z,91.50
2017-09-20T09:36:50.428Z,91.90
2017-09-20T09:39:18.767Z,91.70
2017-09-20T09:41:47.126Z,91.60
2017-09-20T09:44:16.690Z,91.80
2017-09-20T09:46:45.073Z,91.70
2017-09-20T09:49:13.409Z,91.90
2017-09-20T09:51:41.758Z,91.70
2017-09-20T09:54:10.102Z,91.30
2017-09-20T09:56:38.445Z,91.00
2017-09-20T09:59:06.802Z,90.90
2017-09-20T10:01:35.122Z,90.90
2017-09-20T10:04:03.474Z,91.10
2017-09-20T10:06:31.804Z,91.50
2017-09-20T10:09:00.151Z,91.40
2017-09-20T10:11:28.500Z,91.10
2017-09-20T10:13:56.857Z,91.00
2017-09-20T10:16:25.247Z,90.90
2017-09-20T10:18:53.602Z,91.00
2017-09-20T10:21:21.931Z,90.80
2017-09-20T10:23:50.267Z,91.00
2017-09-20T10:26:18.615Z,90.40
2017-09-20T10:28:47.735Z,90.30
2017-09-20T10:31:16.824Z,90.20
2017-09-20T10:33:45.930Z,89.90
2017-09-20T10:36:14.272Z,89.90
2017-09-20T10:38:42.630Z,89.70
2017-09-20T10:41:10.954Z,89.40
2017-09-20T10:43:40.067Z,88.60
2017-09-20T10:46:08.397Z,88.50
2017-09-20T10:48:36.745Z,89.20
2017-09-20T10:51:05.071Z,89.40
2017-09-20T10:53:33.410Z,88.90
2017-09-20T10:56:01.743Z,89.70
2017-09-20T10:58:30.851Z,88.10
2017-09-20T11:00:59.177Z,88.10
2017-09-20T11:03:27.523Z,88.50
2017-09-20T11:05:55.851Z,88.60
2017-09-20T11:08:24.193Z,88.70
2017-09-20T11:10:52.531Z,88.00
2017-09-20T11:13:21.650Z,87.70
2017-09-20T11:15:49.976Z,87.70
2017-09-20T11:18:19.106Z,87.10
2017-09-20T11:20:48.198Z,85.40
2017-09-20T11:23:17.305Z,84.30
2017-09-20T11:25:46.390Z,83.90
2017-09-20T11:28:15.512Z,84.60
2017-09-20T11:30:43.847Z,84.60
2017-09-20T11:33:12.201Z,83.70
2017-09-20T11:35:40.531Z,84.10
2017-09-20T11:38:09.635Z,84.50
2017-09-20T11:40:37.957Z,84.50
2017-09-20T11:43:06.321Z,81.90
2017-09-20T11:45:34.655Z,82.10
2017-09-20T11:48:03.022Z,83.40
2017-09-20T11:50:31.355Z,81.70
2017-09-20T11:52:59.715Z,81.90
2017-09-20T11:55:28.062Z,82.50
2017-09-20T11:57:56.414Z,81.50
2017-09-20T12:00:24.744Z,80.90
2017-09-20T12:02:53.104Z,82.90
2017-09-20T12:05:21.446Z,81.80
2017-09-20T12:07:49.802Z,82.90
2017-09-20T12:10:18.145Z,83.30
2017-09-20T12:12:47.271Z,86.00
2017-09-20T12:15:15.601Z,85.90
2017-09-20T12:17:43.946Z,87.90
2017-09-20T12:20:12.279Z,89.50
2017-09-20T12:22:40.639Z,88.00
2017-09-20T12:25:08.995Z,88.50
2017-09-20T12:27:37.330Z,89.00
2017-09-20T12:30:05.660Z,87.80
2017-09-20T12:32:34.007Z,84.30
2017-09-20T12:35:02.846Z,87.10
2017-09-20T12:37:31.195Z,86.40
2017-09-20T12:39:59.545Z,84.50
2017-09-20T12:42:27.867Z,83.50
2017-09-20T12:44:56.226Z,82.00
2017-09-20T12:47:24.538Z,83.20
2017-09-20T12:49:52.869Z,82.80
2017-09-20T12:52:21.215Z,81.50
2017-09-20T12:54:49.549Z,82.40
2017-09-20T12:57:17.870Z,82.60
2017-09-20T12:59:46.206Z,83.50
2017-09-20T13:02:14.521Z,84.40
2017-09-20T13:04:43.666Z,83.70
2017-09-20T13:07:11.990Z,83.70
2017-09-20T13:09:40.344Z,81.50
2017-09-20T13:12:08.681Z,83.50
2017-09-20T13:14:37.038Z,83.70
2017-09-20T13:17:05.354Z,83.10
2017-09-20T13:19:33.699Z,83.60
2017-09-20T13:22:02.803Z,82.60
2017-09-20T13:24:31.923Z,81.70
2017-09-20T13:27:00.252Z,81.60
2017-09-20T13:29:28.592Z,81.20
2017-09-20T13:31:56.932Z,82.10
2017-09-20T13:34:26.088Z,81.10
2017-09-20T13:36:54.440Z,81.10
2017-09-20T13:39:22.801Z,80.70
2017-09-20T13:41:51.130Z,80.00
2017-09-20T13:44:19.479Z,81.30
2017-09-20T13:46:47.808Z,81.70
2017-09-20T13:49:16.164Z,82.10
2017-09-20T13:51:44.485Z,81.70
2017-09-20T13:54:13.607Z,82.80
2017-09-20T13:56:41.929Z,82.80
2017-09-20T13:59:10.270Z,81.90
2017-09-20T14:01:38.600Z,80.70
2017-09-20T14:04:06.941Z,79.20
2017-09-20T14:06:35.270Z,80.20
2017-09-20T14:09:04.382Z,80.50
2017-09-20T14:11:33.574Z,80.50
2017-09-20T14:14:02.692Z,81.40
2017-09-20T14:16:31.014Z,81.40
2017-09-20T14:18:59.363Z,81.80
2017-09-20T14:21:27.743Z,82.20
2017-09-20T14:23:56.088Z,82.30
2017-09-20T14:26:25.180Z,81.60
2017-09-20T14:28:54.298Z,81.60
2017-09-20T14:31:22.616Z,81.60
2017-09-20T14:33:50.958Z,81.80
2017-09-20T14:36:19.306Z,82.40
2017-09-20T14:38:48.423Z,81.60
2017-09-20T14:41:16.742Z,81.60
2017-09-20T14:43:45.087Z,81.10
2017-09-20T14:46:13.420Z,80.60
2017-09-20T14:48:41.761Z,80.10
2017-09-20T14:51:10.098Z,80.40
2017-09-20T14:53:39.214Z,80.00
2017-09-20T14:56:08.310Z,81.70
2017-09-20T14:58:36.660Z,81.70
2017-09-20T15:01:04.988Z,82.30
2017-09-20T15:03:34.115Z,81.50
2017-09-20T15:06:02.440Z,81.50
2017-09-20T15:08:31.527Z,81.50
2017-09-20T15:11:00.630Z,81.20
2017-09-20T15:13:29.729Z,82.00
2017-09-20T15:15:58.078Z,82.00
2017-09-20T15:18:26.399Z,82.10
2017-09-20T15:20:54.744Z,81.80
2017-09-20T15:23:23.070Z,81.90
2017-09-20T15:25:51.432Z,81.80
2017-09-20T15:28:19.759Z,81.60
2017-09-20T15:30:48.114Z,82.50
2017-09-20T15:33:17.211Z,83.60
2017-09-20T15:35:45.573Z,83.50
2017-09-20T15:38:13.899Z,83.30
2017-09-20T15:40:42.246Z,84.00
2017-09-20T15:43:10.607Z,83.40
2017-09-20T15:45:38.964Z,83.10
2017-09-20T15:48:08.052Z,83.90
2017-09-20T15:50:37.168Z,83.30
2017-09-20T15:53:05.547Z,83.30
2017-09-20T15:55:33.898Z,83.50
2017-09-20T15:58:02.226Z,83.40
2017-09-20T16:00:30.567Z,85.00
2017-09-20T16:02:59.670Z,84.20
2017-09-20T16:05:28.791Z,85.20
2017-09-20T16:07:57.903Z,85.10
2017-09-20T16:10:32.905Z,85.10
2017-09-20T16:13:01.230Z,86.10
2017-09-20T16:15:29.593Z,85.70
2017-09-20T16:17:57.915Z,85.30
2017-09-20T16:20:26.263Z,85.90
2017-09-20T16:22:54.600Z,86.20
2017-09-20T16:25:23.722Z,87.00
2017-09-20T16:27:52.055Z,87.00
2017-09-20T16:30:20.393Z,87.60
2017-09-20T16:32:48.748Z,88.20
2017-09-20T16:35:17.098Z,88.40
2017-09-20T16:37:46.182Z,87.50
2017-09-20T16:40:14.529Z,87.50
2017-09-20T16:42:42.860Z,87.20
2017-09-20T16:45:11.230Z,87.30
2017-09-20T16:47:40.314Z,89.20
2017-09-20T16:50:08.663Z,88.60
2017-09-20T16:52:37.011Z,89.10
2017-09-20T16:55:05.370Z,88.90
2017-09-20T17:00:38.099Z,89.20
2017-09-20T17:03:07.207Z,90.20
2017-09-20T17:05:35.698Z,90.20
2017-09-20T17:08:04.869Z,89.20
2017-09-20T17:10:33.225Z,89.20
2017-09-20T17:13:02.314Z,90.00
2017-09-20T17:15:30.671Z,90.00
2017-09-20T17:17:58.987Z,90.30
2017-09-20T17:20:28.086Z,90.00
2017-09-20T17:22:57.186Z,90.30
2017-09-20T17:25:26.353Z,90.70
2017-09-20T17:27:54.679Z,90.40
2017-09-20T17:30:23.495Z,90.40
2017-09-20T17:32:51.813Z,91.00
2017-09-20T17:35:20.162Z,90.80
2017-09-20T17:37:49.418Z,91.10
2017-09-20T17:40:18.505Z,91.30
2017-09-20T17:42:47.650Z,91.50
2017-09-20T17:45:16.014Z,91.40
2017-09-20T17:47:44.357Z,91.50
2017-09-20T17:50:12.728Z,91.50
2017-09-20T17:52:41.858Z,91.70
2017-09-20T17:55:10.931Z,91.70
2017-09-20T17:57:40.204Z,91.80
2017-09-20T18:00:09.078Z,91.70
2017-09-20T18:02:37.444Z,92.00
2017-09-20T18:05:06.544Z,92.00
2017-09-20T18:07:34.868Z,92.10
2017-09-20T18:10:03.226Z,92.50
2017-09-20T18:12:31.565Z,92.40
2017-09-20T18:14:59.920Z,92.10
2017-09-20T18:17:29.047Z,92.30
2017-09-20T18:19:57.390Z,92.30
2017-09-20T18:22:25.718Z,92.30
2017-09-20T18:24:54.021Z,92.60
2017-09-20T18:27:22.371Z,92.60
2017-09-20T18:29:50.677Z,92.50
2017-09-20T18:32:19.015Z,92.60
2017-09-20T18:34:47.360Z,92.70
2017-09-20T18:37:16.457Z,92.90
2017-09-20T18:39:44.768Z,92.60
2017-09-20T18:42:13.110Z,92.60
2017-09-20T18:44:42.201Z,92.50
2017-09-20T18:47:11.309Z,92.30
2017-09-20T18:49:40.386Z,92.30
2017-09-20T18:52:08.727Z,92.30
2017-09-20T18:54:37.802Z,91.90
2017-09-20T18:57:06.135Z,91.90
2017-09-20T18:59:34.475Z,91.90
2017-09-20T19:02:02.824Z,91.70
2017-09-20T19:04:31.897Z,90.90
2017-09-20T19:07:00.231Z,90.90
2017-09-20T19:09:29.366Z,91.40
2017-09-20T19:11:57.697Z,91.40
2017-09-20T19:14:26.028Z,91.30
2017-09-20T19:16:54.370Z,91.40
2017-09-20T19:19:22.743Z,91.40
2017-09-20T19:21:51.080Z,91.10
2017-09-20T19:24:20.214Z,91.60
2017-09-20T19:26:49.317Z,91.40
2017-09-20T19:29:17.622Z,91.40
2017-09-20T19:31:45.968Z,91.20
2017-09-20T19:34:14.318Z,91.10
2017-09-20T19:36:43.466Z,92.20
2017-09-20T19:39:11.782Z,92.20
2017-09-20T19:41:40.975Z,92.20
2017-09-20T19:44:09.281Z,92.10
2017-09-20T19:46:37.672Z,91.90
2017-09-20T19:49:05.999Z,91.50
2017-09-20T19:51:34.375Z,91.10
2017-09-20T19:54:02.686Z,90.90
2017-09-20T19:56:31.787Z,90.90
2017-09-20T19:59:00.862Z,90.90
2017-09-20T20:01:29.366Z,90.90
2017-09-20T20:03:57.684Z,91.60
2017-09-20T20:06:26.209Z,91.10
2017-09-20T20:08:54.724Z,90.80
2017-09-20T20:11:23.258Z,91.00
2017-09-20T20:13:51.789Z,90.80
2017-09-20T20:16:20.341Z,90.80
2017-09-20T20:18:48.867Z,91.00
2017-09-20T20:21:17.246Z,91.20
2017-09-20T20:23:45.761Z,91.50
2017-09-20T20:26:14.156Z,91.20
2017-09-20T20:28:42.554Z,91.60
2017-09-20T20:31:11.861Z,91.90
2017-09-20T20:33:41.000Z,91.80
2017-09-20T20:36:10.314Z,91.60
2017-09-20T20:38:39.650Z,91.30
2017-09-20T20:41:08.800Z,91.50
2017-09-20T20:43:37.165Z,91.30
2017-09-20T20:46:05.567Z,91.20
2017-09-20T20:48:33.946Z,91.60
2017-09-20T20:51:02.482Z,91.80
2017-09-20T20:53:30.867Z,91.70
2017-09-20T20:55:59.414Z,91.50
2017-09-20T20:58:27.940Z,91.40
2017-09-20T21:00:57.233Z,91.70
2017-09-20T21:03:26.358Z,92.80
2017-09-20T21:05:54.754Z,92.80
2017-09-20T21:08:23.137Z,93.10
2017-09-20T21:10:51.665Z,92.20
2017-09-20T21:13:20.934Z,91.90
2017-09-20T21:15:49.314Z,91.80
2017-09-20T21:18:17.715Z,91.90
2017-09-20T21:20:46.032Z,92.70
2017-09-20T21:23:14.406Z,93.30
2017-09-20T21:25:42.711Z,93.30
2017-09-20T21:28:11.077Z,93.20
2017-09-20T21:30:39.388Z,93.20
2017-09-20T21:33:07.728Z,93.00
2017-09-20T21:35:36.093Z,92.60
2017-09-20T21:38:05.233Z,92.60
2017-09-20T21:40:33.553Z,92.60
2017-09-20T21:43:02.713Z,92.60
2017-09-20T21:45:31.077Z,92.50
2017-09-20T21:47:59.456Z,92.50
2017-09-20T21:50:27.769Z,93.40
2017-09-20T21:52:56.105Z,94.10
2017-09-20T21:55:24.425Z,95.60
2017-09-20T21:57:52.770Z,95.80
2017-09-20T22:00:21.850Z,95.60
2017-09-20T22:02:50.201Z,95.50
2017-09-20T22:05:19.300Z,94.40
2017-09-20T22:07:48.395Z,94.00
2017-09-20T22:10:17.484Z,93.70
2017-09-20T22:12:46.591Z,93.90
2017-09-20T22:15:26.728Z,93.80
2017-09-20T22:18:13.022Z,93.50
2017-09-20T22:20:59.293Z,93.30
2017-09-20T22:23:45.427Z,93.60
2017-09-20T22:26:31.470Z,93.80
2017-09-20T22:29:05.767Z,93.80
2017-09-20T22:31:34.102Z,93.60
2017-09-20T22:34:02.467Z,93.30
2017-09-20T22:36:30.794Z,93.50
2017-09-20T22:38:59.906Z,93.50
2017-09-20T22:41:28.230Z,93.50
2017-09-20T22:43:56.564Z,93.30
2017-09-20T22:46:24.901Z,93.20
2017-09-20T22:48:53.244Z,93.10
2017-09-20T22:51:21.555Z,93.00
2017-09-20T22:53:49.901Z,93.10
2017-09-20T22:56:18.219Z,92.80
2017-09-20T22:58:46.554Z,93.10
2017-09-20T23:01:14.870Z,93.30
2017-09-20T23:03:43.199Z,93.30
2017-09-20T23:06:11.509Z,93.10
2017-09-20T23:08:39.863Z,93.30
2017-09-20T23:11:08.189Z,93.00
2017-09-20T23:13:36.536Z,92.80
2017-09-20T23:16:04.857Z,92.60
2017-09-20T23:18:33.967Z,92.90
2017-09-20T23:21:02.286Z,92.90
2017-09-20T23:23:30.618Z,93.40
2017-09-20T23:25:58.966Z,93.30
2017-09-20T23:28:27.297Z,93.50
2017-09-20T23:30:55.610Z,93.50
2017-09-20T23:33:23.947Z,93.20
2017-09-20T23:35:52.277Z,93.30
2017-09-20T23:38:21.612Z,93.40
2017-09-20T23:40:50.707Z,93.80
2017-09-20T23:43:19.808Z,93.90
2017-09-20T23:45:48.897Z,94.00
2017-09-20T23:48:18.006Z,94.10
2017-09-20T23:50:47.091Z,93.80
2017-09-20T23:53:16.209Z,94.20
2017-09-20T23:55:44.531Z,94.20
2017-09-20T23:58:12.870Z,94.80
